Time;durP1;ratioP1;P1;durP2;ratioP2;P2;SDS_P1;SDS_P2;PMS_P1;PMS_P2;Temp;Humidity;BMP_temperature;BMP_pressure;BME280_temperature;BME280_humidity;BME280_pressure;Samples;Min_cycle;Max_cycle;Signal;HPM_P1;HPM_P2
2022/05/03 00:01:03;;;;;;;14.73;13.43;;;;;;;;;;5085733;28;25192;-46
2022/05/03 00:03:33;;;;;;;15.63;14.23;;;;;;;;;;5084477;28;24792;-50
2022/05/03 00:05:58;;;;;;;16.23;14.63;;;;;;;;;;5081608;28;25168;-48
2022/05/03 00:08:38;;;;;;;15.18;13.88;;;;;;;;;;5085839;28;24463;-47
2022/05/03 00:11:27;;;;;;;14.85;13.55;;;;;;;;;;5085699;28;24418;-45
2022/05/03 00:13:52;;;;;;;15.60;14.30;;;;;;;;;;5081398;28;24429;-45
2022/05/03 00:16:19;;;;;;;15.68;14.18;;;;;;;;;;5086297;28;24513;-46
2022/05/03 00:18:44;;;;;;;15.30;14.00;;;;;;;;;;5087039;28;24517;-46
2022/05/03 00:21:10;;;;;;;15.40;14.00;;;;;;;;;;5085671;28;24963;-46
2022/05/03 00:23:35;;;;;;;15.43;13.93;;;;;;;;;;5084853;28;24434;-46
2022/05/03 00:26:01;;;;;;;15.30;14.00;;;;;;;;;;5085146;28;24521;-46
2022/05/03 00:28:26;;;;;;;15.17;13.87;;;;;;;;;;5086379;28;24421;-46
2022/05/03 00:30:52;;;;;;;15.13;13.73;;;;;;;;;;5084353;28;24472;-46
2022/05/03 00:33:18;;;;;;;15.55;14.25;;;;;;;;;;5080523;28;24461;-46
2022/05/03 00:35:43;;;;;;;15.63;14.23;;;;;;;;;;5082964;28;24503;-46
2022/05/03 00:38:09;;;;;;;16.00;14.60;;;;;;;;;;5080941;28;24425;-46
2022/05/03 00:40:35;;;;;;;15.90;14.50;;;;;;;;;;5083986;28;24423;-46
2022/05/03 00:43:11;;;;;;;14.70;13.50;;;;;;;;;;5076520;28;25006;-47
2022/05/03 00:45:41;;;;;;;15.00;13.70;;;;;;;;;;5085410;28;24541;-46
2022/05/03 00:48:11;;;;;;;14.93;13.67;;;;;;;;;;5081539;28;24422;-46
2022/05/03 00:50:44;;;;;;;15.35;13.90;;;;;;;;;;5080803;28;25238;-46
2022/05/03 00:53:23;;;;;;;16.13;14.50;;;;;;;;;;5078701;28;25254;-46
2022/05/03 00:55:48;;;;;;;14.80;13.50;;;;;;;;;;5080948;28;24529;-46
2022/05/03 00:58:22;;;;;;;15.10;13.73;;;;;;;;;;5083320;28;25033;-46
2022/05/03 01:01:03;;;;;;;15.00;13.70;;;;;;;;;;5082791;28;25294;-46
2022/05/03 01:03:43;;;;;;;15.40;14.00;;;;;;;;;;5079637;28;24430;-46
2022/05/03 01:06:15;;;;;;;15.73;14.43;;;;;;;;;;5078582;28;24426;-46
2022/05/03 01:08:49;;;;;;;15.23;13.73;;;;;;;;;;5085864;28;24976;-46
2022/05/03 01:11:26;;;;;;;16.13;14.50;;;;;;;;;;5071414;28;24422;-45
2022/05/03 01:14:04;;;;;;;14.77;13.48;;;;;;;;;;5084524;28;24422;-47
2022/05/03 01:16:33;;;;;;;14.20;13.00;;;;;;;;;;5083051;28;24943;-47
2022/05/03 01:19:27;;;;;;;15.10;13.70;;;;;;;;;;5081944;28;24434;-47
2022/05/03 01:22:19;;;;;;;14.68;13.38;;;;;;;;;;5077303;28;24433;-46
2022/05/03 01:25:01;;;;;;;15.00;13.60;;;;;;;;;;5082594;28;24446;-46
2022/05/03 01:27:37;;;;;;;15.10;13.80;;;;;;;;;;5079437;28;25035;-46
2022/05/03 01:30:03;;;;;;;15.23;13.82;;;;;;;;;;5078195;28;24446;-45
2022/05/03 01:32:31;;;;;;;14.70;13.50;;;;;;;;;;5078385;28;24427;-46
2022/05/03 01:34:56;;;;;;;15.32;13.93;;;;;;;;;;5080287;28;24466;-46
2022/05/03 01:37:36;;;;;;;15.27;13.87;;;;;;;;;;5075070;28;24460;-46
2022/05/03 01:40:04;;;;;;;14.07;12.88;;;;;;;;;;5080166;28;24402;-46
2022/05/03 01:42:39;;;;;;;15.83;14.33;;;;;;;;;;5068969;28;24465;-46
2022/05/03 01:45:05;;;;;;;14.43;13.13;;;;;;;;;;5077794;28;25041;-46
2022/05/03 01:47:37;;;;;;;15.23;13.93;;;;;;;;;;5082648;28;24428;-46
2022/05/03 01:50:20;;;;;;;15.20;13.90;;;;;;;;;;5079353;28;26126;-45
2022/05/03 01:53:00;;;;;;;15.80;14.50;;;;;;;;;;5077733;28;24513;-46
2022/05/03 01:55:44;;;;;;;15.40;14.00;;;;;;;;;;5081760;28;24410;-46
2022/05/03 01:58:09;;;;;;;15.20;13.70;;;;;;;;;;5086127;28;24426;-46
2022/05/03 02:00:35;;;;;;;16.33;14.82;;;;;;;;;;5085079;28;24425;-45
2022/05/03 02:03:12;;;;;;;15.43;14.05;;;;;;;;;;5081695;28;24437;-46
2022/05/03 02:06:00;;;;;;;16.13;14.73;;;;;;;;;;5079495;28;24994;-46
2022/05/03 02:08:29;;;;;;;15.82;14.43;;;;;;;;;;5081459;28;24789;-46
2022/05/03 02:10:57;;;;;;;15.90;14.50;;;;;;;;;;5083390;28;24453;-46
2022/05/03 02:16:45;;;;;;;15.60;14.30;;;;;;;;;;5083348;28;24467;-46
2022/05/03 02:19:17;;;;;;;15.43;14.13;;;;;;;;;;5037984;28;24426;-46
2022/05/03 02:22:05;;;;;;;15.15;13.85;;;;;;;;;;5083166;28;24422;-46
2022/05/03 02:24:53;;;;;;;15.45;14.05;;;;;;;;;;5081830;28;25053;-46
2022/05/03 02:27:19;;;;;;;15.95;14.45;;;;;;;;;;5084254;28;25022;-46
2022/05/03 02:29:44;;;;;;;15.32;14.00;;;;;;;;;;5082901;28;24443;-46
2022/05/03 02:32:10;;;;;;;15.40;14.10;;;;;;;;;;5079622;28;24501;-46
2022/05/03 02:34:42;;;;;;;15.90;14.50;;;;;;;;;;5081270;28;24780;-46
2022/05/03 02:37:12;;;;;;;15.30;13.90;;;;;;;;;;5080667;28;24529;-46
2022/05/03 02:39:38;;;;;;;14.65;13.35;;;;;;;;;;5081340;28;24567;-45
2022/05/03 02:42:05;;;;;;;16.05;14.55;;;;;;;;;;5081751;28;24426;-46
2022/05/03 02:44:33;;;;;;;15.88;14.38;;;;;;;;;;5083840;28;24449;-46
2022/05/03 02:47:03;;;;;;;16.98;15.40;;;;;;;;;;5081362;28;24987;-46
2022/05/03 02:49:41;;;;;;;16.30;14.90;;;;;;;;;;5082513;28;24441;-46
2022/05/03 02:52:25;;;;;;;15.90;14.40;;;;;;;;;;5079599;28;24430;-46
2022/05/03 02:55:15;;;;;;;15.80;14.40;;;;;;;;;;5081474;28;24643;-46
2022/05/03 02:57:41;;;;;;;16.17;14.77;;;;;;;;;;5083319;28;24422;-45
2022/05/03 03:03:04;;;;;;;16.33;14.93;;;;;;;;;;5079617;28;24460;-46
2022/05/03 03:05:29;;;;;;;16.73;15.23;;;;;;;;;;5080416;28;24456;-46
2022/05/03 03:08:01;;;;;;;16.20;14.65;;;;;;;;;;5082306;28;24452;-46
2022/05/03 03:10:59;;;;;;;17.38;15.77;;;;;;;;;;5082710;28;24468;-46
2022/05/03 03:13:42;;;;;;;16.13;14.82;;;;;;;;;;5036396;28;24864;-45
2022/05/03 03:16:09;;;;;;;17.35;15.75;;;;;;;;;;5080913;28;24414;-46
2022/05/03 03:18:36;;;;;;;16.23;14.82;;;;;;;;;;5081796;28;24414;-46
2022/05/03 03:21:05;;;;;;;16.10;14.80;;;;;;;;;;5085271;28;24521;-46
2022/05/03 03:23:31;;;;;;;16.40;15.00;;;;;;;;;;5079685;28;24430;-46
2022/05/03 03:25:57;;;;;;;17.75;16.00;;;;;;;;;;5085315;28;24453;-46
2022/05/03 03:28:23;;;;;;;17.50;16.00;;;;;;;;;;5077647;28;24484;-46
2022/05/03 03:30:51;;;;;;;17.07;15.47;;;;;;;;;;5085397;28;24706;-47
2022/05/03 03:33:20;;;;;;;17.10;15.60;;;;;;;;;;5088558;28;24425;-46
2022/05/03 03:35:47;;;;;;;16.63;15.23;;;;;;;;;;5084244;28;21354;-46
2022/05/03 03:38:12;;;;;;;17.77;16.17;;;;;;;;;;5088921;28;24422;-52
2022/05/03 03:40:38;;;;;;;19.13;17.50;;;;;;;;;;5087549;28;24788;-46
2022/05/03 03:43:03;;;;;;;18.67;17.10;;;;;;;;;;5088529;28;24426;-46
2022/05/03 03:45:28;;;;;;;18.30;16.60;;;;;;;;;;5089229;28;24938;-47
2022/05/03 03:47:53;;;;;;;17.80;16.20;;;;;;;;;;5089580;28;24394;-46
2022/05/03 03:50:19;;;;;;;17.73;16.23;;;;;;;;;;5088022;28;24877;-46
2022/05/03 03:52:46;;;;;;;17.83;16.13;;;;;;;;;;5086726;28;24393;-47
2022/05/03 03:55:12;;;;;;;17.80;16.20;;;;;;;;;;5080750;28;24430;-46
2022/05/03 03:57:38;;;;;;;17.55;16.05;;;;;;;;;;5085935;28;24418;-46
2022/05/03 04:00:05;;;;;;;17.40;15.90;;;;;;;;;;5083078;28;24503;-45
2022/05/03 04:02:30;;;;;;;18.23;16.67;;;;;;;;;;5087489;28;24503;-45
2022/05/03 04:04:55;;;;;;;17.50;16.00;;;;;;;;;;5087318;28;24426;-45
2022/05/03 04:07:20;;;;;;;18.07;16.47;;;;;;;;;;5069348;28;24517;-45
2022/05/03 04:09:45;;;;;;;18.13;16.43;;;;;;;;;;5086958;28;24789;-46
2022/05/03 04:12:10;;;;;;;17.20;15.70;;;;;;;;;;5085354;28;24426;-46
2022/05/03 04:14:36;;;;;;;17.33;15.70;;;;;;;;;;5086547;28;24821;-46
2022/05/03 04:17:01;;;;;;;16.20;14.70;;;;;;;;;;5085825;28;24484;-46
2022/05/03 04:19:26;;;;;;;16.70;15.20;;;;;;;;;;5083341;28;24441;-45
2022/05/03 04:21:51;;;;;;;16.90;15.10;;;;;;;;;;5088128;28;24878;-46
2022/05/03 04:24:16;;;;;;;16.20;14.70;;;;;;;;;;5086707;28;25134;-46
2022/05/03 04:26:42;;;;;;;14.95;13.73;;;;;;;;;;5082836;28;24414;-46
2022/05/03 04:29:07;;;;;;;15.77;14.20;;;;;;;;;;5080702;28;24466;-46
2022/05/03 04:31:33;;;;;;;15.80;14.37;;;;;;;;;;5086084;28;24796;-46
2022/05/03 04:34:00;;;;;;;15.13;13.52;;;;;;;;;;5085784;28;24521;-46
2022/05/03 04:36:25;;;;;;;14.97;13.67;;;;;;;;;;5085998;28;24446;-46
2022/05/03 04:38:51;;;;;;;15.17;13.77;;;;;;;;;;5084856;28;24469;-46
2022/05/03 04:41:16;;;;;;;15.80;14.20;;;;;;;;;;5081727;28;24482;-46
2022/05/03 04:43:42;;;;;;;14.73;13.57;;;;;;;;;;5081430;28;24434;-46
2022/05/03 04:46:07;;;;;;;14.47;13.27;;;;;;;;;;5082331;28;24426;-46
2022/05/03 04:48:32;;;;;;;14.60;13.20;;;;;;;;;;5082916;28;24455;-46
2022/05/03 04:50:57;;;;;;;14.57;13.27;;;;;;;;;;5082722;28;24982;-46
2022/05/03 04:53:22;;;;;;;14.85;13.55;;;;;;;;;;5081720;28;24467;-46
2022/05/03 04:55:48;;;;;;;14.07;12.87;;;;;;;;;;5080595;28;24477;-46
2022/05/03 04:58:13;;;;;;;13.20;12.10;;;;;;;;;;5079076;28;24483;-46
2022/05/03 05:00:38;;;;;;;13.90;12.60;;;;;;;;;;5082562;28;24446;-46
2022/05/03 05:03:03;;;;;;;13.63;12.43;;;;;;;;;;5073818;28;24551;-46
2022/05/03 05:05:28;;;;;;;13.88;12.68;;;;;;;;;;5083310;28;24948;-46
2022/05/03 05:07:54;;;;;;;15.70;14.30;;;;;;;;;;5084671;28;24436;-45
2022/05/03 05:10:26;;;;;;;13.93;12.70;;;;;;;;;;5083722;28;24430;-46
2022/05/03 05:12:51;;;;;;;13.30;12.10;;;;;;;;;;5082180;28;24799;-45
2022/05/03 05:15:17;;;;;;;13.38;12.35;;;;;;;;;;5079639;28;24490;-46
2022/05/03 05:17:42;;;;;;;12.80;11.70;;;;;;;;;;5076207;28;24465;-45
2022/05/03 05:20:07;;;;;;;13.53;12.43;;;;;;;;;;5084819;28;24959;-46
2022/05/03 05:22:32;;;;;;;12.53;11.53;;;;;;;;;;5082137;28;24433;-46
2022/05/03 05:24:57;;;;;;;12.15;11.15;;;;;;;;;;5080718;28;25011;-46
2022/05/03 05:27:23;;;;;;;12.20;11.20;;;;;;;;;;5086272;28;24422;-46
2022/05/03 05:29:48;;;;;;;12.45;11.45;;;;;;;;;;5086965;28;24951;-46
2022/05/03 05:32:13;;;;;;;11.80;10.90;;;;;;;;;;5086505;28;24433;-46
2022/05/03 05:34:38;;;;;;;11.38;10.48;;;;;;;;;;5086966;28;24935;-46
2022/05/03 05:37:03;;;;;;;11.77;10.77;;;;;;;;;;5087006;28;24397;-46
2022/05/03 05:39:29;;;;;;;12.27;11.27;;;;;;;;;;5085269;28;24422;-46
2022/05/03 05:41:59;;;;;;;11.40;10.50;;;;;;;;;;5086887;28;24456;-47
2022/05/03 05:44:24;;;;;;;12.73;11.73;;;;;;;;;;5086099;28;24417;-46
2022/05/03 05:46:49;;;;;;;12.83;11.73;;;;;;;;;;5086145;28;24418;-46
2022/05/03 05:49:14;;;;;;;13.60;12.30;;;;;;;;;;5080055;28;24983;-46
2022/05/03 05:51:39;;;;;;;16.13;14.83;;;;;;;;;;5080384;28;24472;-46
2022/05/03 05:54:04;;;;;;;17.02;15.60;;;;;;;;;;5083503;28;24457;-46
2022/05/03 05:56:29;;;;;;;14.10;13.00;;;;;;;;;;5083819;28;24716;-46
2022/05/03 05:58:55;;;;;;;13.03;12.03;;;;;;;;;;5084046;28;24493;-46
2022/05/03 06:01:24;;;;;;;13.57;12.47;;;;;;;;;;5083179;28;24429;-46
2022/05/03 06:03:49;;;;;;;14.38;13.18;;;;;;;;;;5080832;28;24513;-46
2022/05/03 06:06:14;;;;;;;15.50;14.20;;;;;;;;;;5080975;28;24513;-46
2022/05/03 06:08:39;;;;;;;15.80;14.40;;;;;;;;;;5083920;28;24430;-46
2022/05/03 06:11:04;;;;;;;16.00;14.60;;;;;;;;;;5083674;28;24414;-46
2022/05/03 06:13:30;;;;;;;13.55;12.45;;;;;;;;;;5083324;28;24454;-46
2022/05/03 06:16:05;;;;;;;13.70;12.40;;;;;;;;;;5082057;28;24988;-46
2022/05/03 06:18:30;;;;;;;14.30;13.00;;;;;;;;;;5081514;28;24533;-46
2022/05/03 06:20:55;;;;;;;14.32;13.02;;;;;;;;;;5080005;28;24900;-46
2022/05/03 06:23:20;;;;;;;19.00;17.20;;;;;;;;;;5083870;28;24405;-44
2022/05/03 06:25:45;;;;;;;15.77;14.48;;;;;;;;;;5075664;28;24435;-46
2022/05/03 06:28:11;;;;;;;16.20;14.90;;;;;;;;;;5069110;28;24465;-45
2022/05/03 06:30:36;;;;;;;17.60;16.10;;;;;;;;;;5083330;28;24446;-46
2022/05/03 06:33:01;;;;;;;17.05;15.65;;;;;;;;;;5085265;28;24560;-46
2022/05/03 06:35:28;;;;;;;15.77;14.48;;;;;;;;;;5085408;28;24414;-46
2022/05/03 06:37:53;;;;;;;17.55;15.95;;;;;;;;;;5080794;28;24428;-46
2022/05/03 06:40:19;;;;;;;17.07;15.67;;;;;;;;;;5081640;28;24449;-45
2022/05/03 06:42:44;;;;;;;17.03;15.63;;;;;;;;;;5079743;28;25054;-46
2022/05/03 06:45:10;;;;;;;15.40;14.10;;;;;;;;;;5082638;28;24431;-46
2022/05/03 06:47:35;;;;;;;15.85;14.45;;;;;;;;;;5082933;28;24419;-45
2022/05/03 06:50:00;;;;;;;15.83;14.33;;;;;;;;;;5071785;28;24430;-46
2022/05/03 06:52:27;;;;;;;18.23;16.67;;;;;;;;;;5084751;28;24402;-46
2022/05/03 06:54:52;;;;;;;17.60;16.10;;;;;;;;;;5090588;28;24470;-46
2022/05/03 06:57:17;;;;;;;16.13;14.73;;;;;;;;;;5090113;28;24477;-46
2022/05/03 06:59:42;;;;;;;17.70;16.00;;;;;;;;;;5083208;28;25011;-46
2022/05/03 07:02:08;;;;;;;15.80;14.40;;;;;;;;;;5069956;28;24428;-46
2022/05/03 07:04:34;;;;;;;14.80;13.60;;;;;;;;;;5069419;28;24984;-47
2022/05/03 07:06:59;;;;;;;15.17;13.97;;;;;;;;;;5069291;28;24399;-47
2022/05/03 07:09:24;;;;;;;15.07;13.77;;;;;;;;;;5069560;28;24409;-48
2022/05/03 07:11:49;;;;;;;14.63;13.43;;;;;;;;;;5071880;28;24407;-46
2022/05/03 07:14:15;;;;;;;13.32;12.13;;;;;;;;;;5069460;28;24865;-46
2022/05/03 07:16:40;;;;;;;13.65;12.45;;;;;;;;;;5069354;28;24400;-46
2022/05/03 07:24:33;;;;;;;15.07;13.77;;;;;;;;;;5075230;28;25353;-46
2022/05/03 07:26:58;;;;;;;15.27;13.98;;;;;;;;;;5089528;28;24394;-46
2022/05/03 07:29:23;;;;;;;15.60;14.20;;;;;;;;;;5089123;28;24461;-46
2022/05/03 07:31:48;;;;;;;13.27;12.17;;;;;;;;;;5089745;28;24378;-46
2022/05/03 07:34:14;;;;;;;13.90;12.80;;;;;;;;;;5088866;28;24936;-47
2022/05/03 07:36:39;;;;;;;13.77;12.65;;;;;;;;;;5088583;28;24410;-46
2022/05/03 07:39:04;;;;;;;14.48;13.27;;;;;;;;;;5088216;28;24446;-45
2022/05/03 07:41:29;;;;;;;13.63;12.48;;;;;;;;;;5089101;28;24489;-46
2022/05/03 07:43:55;;;;;;;11.47;10.47;;;;;;;;;;5089258;28;24430;-46
2022/05/03 07:46:20;;;;;;;10.97;9.97;;;;;;;;;;5088647;28;24474;-46
2022/05/03 07:48:45;;;;;;;10.50;9.60;;;;;;;;;;5088114;28;24464;-46
2022/05/03 07:51:12;;;;;;;9.10;8.40;;;;;;;;;;5075662;28;24505;-46
2022/05/03 07:53:37;;;;;;;9.00;8.20;;;;;;;;;;5081323;28;24418;-46
2022/05/03 07:56:02;;;;;;;8.50;7.80;;;;;;;;;;5088987;28;24483;-46
2022/05/03 07:58:28;;;;;;;8.30;7.60;;;;;;;;;;5089006;28;24401;-46
2022/05/03 08:00:53;;;;;;;10.30;9.30;;;;;;;;;;5089235;28;24436;-46
2022/05/03 08:03:19;;;;;;;9.57;8.67;;;;;;;;;;5086602;28;24509;-46
2022/05/03 08:05:44;;;;;;;8.40;7.70;;;;;;;;;;5088739;28;24502;-46
2022/05/03 08:08:10;;;;;;;8.23;7.43;;;;;;;;;;5088185;28;24849;-46
2022/05/03 08:10:35;;;;;;;9.87;9.00;;;;;;;;;;5087851;28;24807;-46
2022/05/03 08:13:00;;;;;;;9.60;8.70;;;;;;;;;;5088736;28;24394;-47
2022/05/03 08:15:25;;;;;;;10.20;9.30;;;;;;;;;;5087943;28;24505;-46
2022/05/03 08:17:50;;;;;;;10.05;9.25;;;;;;;;;;5088401;28;24393;-46
2022/05/03 08:20:16;;;;;;;10.93;9.93;;;;;;;;;;5088466;28;24411;-47
2022/05/03 08:22:42;;;;;;;7.70;7.00;;;;;;;;;;5087746;28;24439;-46
2022/05/03 08:25:07;;;;;;;8.00;7.35;;;;;;;;;;5082407;28;24477;-46
2022/05/03 08:27:36;;;;;;;7.37;6.87;;;;;;;;;;5066061;28;24411;-46
2022/05/03 08:30:01;;;;;;;9.10;8.30;;;;;;;;;;5071459;28;24572;-46
2022/05/03 08:32:26;;;;;;;9.00;8.20;;;;;;;;;;5068424;28;24510;-46
2022/05/03 08:34:51;;;;;;;8.00;7.40;;;;;;;;;;5079937;28;24434;-46
2022/05/03 08:42:44;;;;;;;9.43;8.52;;;;;;;;;;5086914;28;24386;-46
2022/05/03 08:45:09;;;;;;;8.75;8.05;;;;;;;;;;5078179;28;24423;-46
2022/05/03 08:47:36;;;;;;;8.10;7.20;;;;;;;;;;5076392;28;24504;-46
2022/05/03 08:50:03;;;;;;;7.90;7.20;;;;;;;;;;5072603;28;24426;-46
2022/05/03 08:52:33;;;;;;;7.03;6.50;;;;;;;;;;5067789;28;24418;-46
2022/05/03 08:54:59;;;;;;;8.80;8.10;;;;;;;;;;5086368;28;24447;-46
2022/05/03 08:57:24;;;;;;;10.57;9.57;;;;;;;;;;5085874;28;24452;-46
2022/05/03 08:59:50;;;;;;;9.80;9.00;;;;;;;;;;5086350;28;24483;-47
2022/05/03 09:02:15;;;;;;;8.93;8.23;;;;;;;;;;5086732;28;24453;-46
2022/05/03 09:04:40;;;;;;;8.60;7.93;;;;;;;;;;5087524;28;24509;-46
2022/05/03 09:07:16;;;;;;;8.30;7.60;;;;;;;;;;5087109;28;24773;-46
2022/05/03 09:09:41;;;;;;;8.55;7.85;;;;;;;;;;5087023;28;24463;-46
2022/05/03 09:12:20;;;;;;;8.67;7.63;;;;;;;;;;5080435;28;24418;-47
2022/05/03 09:14:46;;;;;;;8.97;8.07;;;;;;;;;;5066780;28;24754;-46
2022/05/03 09:17:11;;;;;;;9.00;8.20;;;;;;;;;;5066595;28;24449;-46
2022/05/03 09:19:37;;;;;;;10.27;9.27;;;;;;;;;;5068536;28;24970;-46
2022/05/03 09:24:59;;;;;;;8.05;7.45;;;;;;;;;;5087346;28;24466;-47
2022/05/03 09:27:25;;;;;;;8.90;8.20;;;;;;;;;;5085759;28;24401;-45
2022/05/03 09:30:00;;;;;;;9.27;8.48;;;;;;;;;;5086713;28;25232;-46
2022/05/03 09:32:35;;;;;;;8.68;8.05;;;;;;;;;;5085989;28;24493;-47
2022/05/03 09:35:01;;;;;;;9.75;8.80;;;;;;;;;;5066998;28;24448;-46
2022/05/03 09:37:41;;;;;;;9.73;8.90;;;;;;;;;;5066640;28;24403;-46
2022/05/03 09:40:08;;;;;;;8.07;7.38;;;;;;;;;;5066863;28;24736;-47
2022/05/03 09:42:34;;;;;;;9.93;8.27;;;;;;;;;;5066607;28;24409;-46
2022/05/03 09:45:02;;;;;;;9.40;8.50;;;;;;;;;;5086190;28;24426;-46
2022/05/03 09:47:33;;;;;;;8.25;7.55;;;;;;;;;;5086424;28;24581;-46
2022/05/03 09:49:58;;;;;;;10.32;9.32;;;;;;;;;;5086942;28;24497;-46
2022/05/03 09:52:31;;;;;;;8.83;8.13;;;;;;;;;;5086565;28;24501;-46
2022/05/03 09:54:59;;;;;;;8.82;8.02;;;;;;;;;;5072674;28;24461;-47
2022/05/03 09:57:25;;;;;;;9.10;8.30;;;;;;;;;;5084250;28;24418;-46
2022/05/03 09:59:51;;;;;;;8.40;7.80;;;;;;;;;;5086551;28;24722;-46
2022/05/03 10:02:17;;;;;;;8.00;7.30;;;;;;;;;;5086329;28;24938;-47
2022/05/03 10:04:43;;;;;;;9.37;8.47;;;;;;;;;;5084603;28;24426;-47
2022/05/03 10:07:09;;;;;;;8.88;8.07;;;;;;;;;;5086874;28;24387;-47
2022/05/03 10:09:34;;;;;;;10.97;10.07;;;;;;;;;;5085424;28;24425;-46
2022/05/03 10:12:00;;;;;;;10.60;9.60;;;;;;;;;;5086744;28;24440;-45
2022/05/03 10:14:26;;;;;;;10.90;10.03;;;;;;;;;;5085943;28;24468;-46
2022/05/03 10:22:20;;;;;;;10.20;9.20;;;;;;;;;;5085833;28;24409;-46
2022/05/03 10:24:51;;;;;;;9.70;8.77;;;;;;;;;;5086228;28;24430;-44
2022/05/03 10:27:21;;;;;;;10.70;9.80;;;;;;;;;;5085832;28;24471;-44
2022/05/03 10:30:06;;;;;;;11.63;10.43;;;;;;;;;;5090394;28;24426;-44
2022/05/03 10:32:32;;;;;;;11.10;10.10;;;;;;;;;;5090026;28;24459;-48
2022/05/03 10:34:59;;;;;;;10.50;9.50;;;;;;;;;;5090336;28;24414;-46
2022/05/03 10:37:34;;;;;;;10.05;9.25;;;;;;;;;;5088849;28;24970;-46
2022/05/03 10:40:00;;;;;;;9.68;8.88;;;;;;;;;;5090565;28;24390;-46
2022/05/03 10:42:26;;;;;;;10.43;9.55;;;;;;;;;;5090147;28;24424;-47
2022/05/03 10:44:51;;;;;;;10.40;9.50;;;;;;;;;;5089795;28;24620;-46
2022/05/03 10:47:21;;;;;;;11.32;10.32;;;;;;;;;;5080663;28;24519;-46
2022/05/03 10:50:05;;;;;;;9.67;8.77;;;;;;;;;;5069926;28;24403;-46
2022/05/03 10:52:31;;;;;;;7.88;7.28;;;;;;;;;;5070438;28;24391;-46
2022/05/03 10:55:06;;;;;;;9.83;8.93;;;;;;;;;;5089159;28;24780;-46
2022/05/03 10:57:32;;;;;;;9.88;9.07;;;;;;;;;;5081264;28;24419;-46
2022/05/03 10:59:58;;;;;;;10.18;9.38;;;;;;;;;;5074302;28;24542;-47
2022/05/03 11:02:23;;;;;;;9.30;8.50;;;;;;;;;;5069263;28;24529;-46
2022/05/03 11:05:07;;;;;;;11.00;9.90;;;;;;;;;;5068631;28;24425;-46
2022/05/03 11:07:32;;;;;;;11.87;10.87;;;;;;;;;;5070638;28;24538;-46
2022/05/03 11:10:17;;;;;;;9.80;9.00;;;;;;;;;;5079651;28;24540;-46
2022/05/03 11:12:49;;;;;;;8.85;8.15;;;;;;;;;;5087575;28;24413;-48
2022/05/03 11:15:14;;;;;;;9.47;8.67;;;;;;;;;;5074374;28;24469;-45
2022/05/03 11:17:42;;;;;;;10.67;9.77;;;;;;;;;;5069518;28;24480;-44
2022/05/03 11:20:08;;;;;;;9.55;8.70;;;;;;;;;;5082966;28;24555;-45
2022/05/03 11:22:35;;;;;;;9.98;9.18;;;;;;;;;;5087456;28;24501;-46
2022/05/03 11:25:04;;;;;;;9.32;8.52;;;;;;;;;;5075034;28;24433;-44
2022/05/03 11:27:31;;;;;;;10.07;9.18;;;;;;;;;;5069888;28;24427;-45
2022/05/03 11:29:57;;;;;;;9.63;8.82;;;;;;;;;;5075268;28;24517;-44
2022/05/03 11:32:29;;;;;;;10.15;9.32;;;;;;;;;;5067854;28;24395;-43
2022/05/03 11:35:01;;;;;;;9.00;8.20;;;;;;;;;;5082704;28;24457;-45
2022/05/03 11:37:26;;;;;;;9.90;9.00;;;;;;;;;;5072859;28;24414;-45
2022/05/03 11:39:52;;;;;;;9.60;8.70;;;;;;;;;;5075820;28;24785;-46
2022/05/03 11:42:21;;;;;;;10.30;9.30;;;;;;;;;;5067353;28;24399;-46
2022/05/03 11:44:46;;;;;;;8.60;7.90;;;;;;;;;;5072750;28;24536;-45
2022/05/03 11:47:13;;;;;;;8.43;7.73;;;;;;;;;;5086332;28;24396;-46
2022/05/03 11:49:38;;;;;;;9.07;8.13;;;;;;;;;;5086557;28;24437;-46
2022/05/03 11:57:33;;;;;;;7.30;6.70;;;;;;;;;;5085840;28;24422;-46
2022/05/03 11:59:59;;;;;;;9.50;8.70;;;;;;;;;;5071985;28;24517;-45
2022/05/03 12:02:30;;;;;;;9.38;8.57;;;;;;;;;;5087428;28;24943;-45
2022/05/03 12:05:05;;;;;;;8.35;7.55;;;;;;;;;;5085400;28;24449;-45
2022/05/03 12:07:35;;;;;;;9.60;8.70;;;;;;;;;;5088879;28;24608;-45
2022/05/03 12:10:00;;;;;;;8.93;8.23;;;;;;;;;;5085750;28;24517;-46
2022/05/03 12:12:44;;;;;;;9.20;8.50;;;;;;;;;;5086304;28;24514;-46
2022/05/03 12:15:13;;;;;;;9.07;8.27;;;;;;;;;;5066713;28;24406;-45
2022/05/03 12:17:58;;;;;;;8.90;8.20;;;;;;;;;;5068387;28;24399;-46
2022/05/03 12:20:23;;;;;;;9.45;8.68;;;;;;;;;;5086468;28;25275;-46
2022/05/03 12:23:08;;;;;;;7.73;7.03;;;;;;;;;;5079894;28;24521;-46
2022/05/03 12:25:33;;;;;;;9.02;8.23;;;;;;;;;;5087971;28;24788;-47
2022/05/03 12:28:02;;;;;;;9.40;8.60;;;;;;;;;;5088233;28;24490;-46
2022/05/03 12:30:27;;;;;;;8.80;7.90;;;;;;;;;;5081921;28;24497;-46
2022/05/03 12:32:52;;;;;;;8.40;7.53;;;;;;;;;;5069100;28;24430;-46
2022/05/03 12:35:27;;;;;;;8.27;7.57;;;;;;;;;;5085604;28;24509;-46
2022/05/03 12:37:52;;;;;;;7.50;6.90;;;;;;;;;;5087027;28;24521;-46
2022/05/03 12:40:25;;;;;;;5.80;5.40;;;;;;;;;;5070970;28;24506;-46
2022/05/03 12:42:50;;;;;;;7.47;6.87;;;;;;;;;;5067565;28;24967;-46
2022/05/03 12:45:18;;;;;;;9.03;8.23;;;;;;;;;;5086614;28;24437;-46
2022/05/03 12:47:43;;;;;;;9.50;8.60;;;;;;;;;;5087602;28;24417;-45
2022/05/03 12:50:08;;;;;;;8.63;8.02;;;;;;;;;;5082420;28;24450;-46
2022/05/03 12:52:33;;;;;;;9.50;8.70;;;;;;;;;;5068588;28;24979;-46
2022/05/03 12:54:59;;;;;;;8.40;7.70;;;;;;;;;;5084462;28;24414;-45
2022/05/03 13:00:08;;;;;;;8.30;7.70;;;;;;;;;;5087479;28;24465;-45
2022/05/03 13:02:34;;;;;;;7.43;6.83;;;;;;;;;;5087691;28;24505;-45
2022/05/03 13:04:59;;;;;;;8.57;7.88;;;;;;;;;;5084707;28;24860;-45
2022/05/03 13:07:24;;;;;;;6.90;6.40;;;;;;;;;;5087879;28;24448;-45
2022/05/03 13:09:49;;;;;;;7.10;6.60;;;;;;;;;;5085171;28;24981;-45
2022/05/03 13:12:15;;;;;;;9.00;8.20;;;;;;;;;;5068524;28;24397;-45
2022/05/03 13:14:40;;;;;;;8.00;7.30;;;;;;;;;;5087232;28;24580;-46
2022/05/03 13:17:05;;;;;;;8.40;7.70;;;;;;;;;;5085242;28;24931;-44
2022/05/03 13:19:31;;;;;;;7.90;7.30;;;;;;;;;;5086832;28;24410;-45
2022/05/03 13:21:56;;;;;;;7.10;6.50;;;;;;;;;;5085629;28;24509;-45
2022/05/03 13:24:22;;;;;;;8.70;8.00;;;;;;;;;;5086480;28;24529;-45
2022/05/03 13:26:47;;;;;;;8.07;7.43;;;;;;;;;;5082115;28;24430;-45
2022/05/03 13:29:13;;;;;;;7.35;6.75;;;;;;;;;;5086662;28;25090;-45
2022/05/03 13:31:39;;;;;;;7.80;7.20;;;;;;;;;;5086218;28;25007;-45
2022/05/03 13:34:04;;;;;;;8.20;7.60;;;;;;;;;;5069044;28;24576;-45
2022/05/03 13:41:58;;;;;;;8.57;7.68;;;;;;;;;;5086585;28;24397;-45
2022/05/03 13:44:25;;;;;;;8.80;7.90;;;;;;;;;;5086153;28;24422;-46
2022/05/03 13:46:52;;;;;;;7.85;7.25;;;;;;;;;;5086136;28;24418;-45
2022/05/03 13:49:17;;;;;;;8.10;7.40;;;;;;;;;;5085782;28;25022;-45
2022/05/03 13:51:42;;;;;;;8.50;7.70;;;;;;;;;;5085540;28;24786;-44
2022/05/03 13:54:07;;;;;;;8.90;8.10;;;;;;;;;;5084594;28;24515;-45
2022/05/03 13:56:32;;;;;;;7.75;7.05;;;;;;;;;;5085906;28;24394;-45
2022/05/03 13:58:58;;;;;;;7.50;6.90;;;;;;;;;;5084138;28;24467;-45
2022/05/03 14:01:23;;;;;;;6.68;6.18;;;;;;;;;;5086117;28;24452;-44
2022/05/03 14:03:49;;;;;;;6.67;6.17;;;;;;;;;;5085860;28;24465;-45
2022/05/03 14:06:14;;;;;;;8.50;7.70;;;;;;;;;;5086609;28;24474;-45
2022/05/03 14:08:39;;;;;;;7.20;6.60;;;;;;;;;;5086101;28;24422;-45
2022/05/03 14:11:05;;;;;;;7.22;6.72;;;;;;;;;;5084615;28;24418;-46
2022/05/03 14:13:30;;;;;;;7.87;7.27;;;;;;;;;;5086315;28;24898;-45
2022/05/03 14:15:55;;;;;;;8.30;7.60;;;;;;;;;;5086385;28;25010;-45
2022/05/03 14:18:20;;;;;;;7.78;6.97;;;;;;;;;;5079927;28;24426;-45
2022/05/03 14:20:46;;;;;;;7.80;7.10;;;;;;;;;;5063235;28;24410;-45
2022/05/03 14:23:11;;;;;;;7.20;6.60;;;;;;;;;;5069890;28;24483;-46
2022/05/03 14:25:36;;;;;;;7.83;7.13;;;;;;;;;;5085288;28;24449;-45
2022/05/03 14:28:01;;;;;;;8.13;7.20;;;;;;;;;;5085445;28;24431;-45
2022/05/03 14:30:27;;;;;;;8.70;8.10;;;;;;;;;;5085205;28;24968;-45
2022/05/03 14:32:52;;;;;;;8.20;7.60;;;;;;;;;;5078533;28;24476;-45
2022/05/03 14:35:17;;;;;;;8.37;7.77;;;;;;;;;;5064479;28;24458;-45
2022/05/03 14:37:42;;;;;;;7.97;7.17;;;;;;;;;;5071437;28;24433;-45
2022/05/03 14:40:08;;;;;;;7.57;6.87;;;;;;;;;;5083808;28;25006;-45
2022/05/03 14:42:33;;;;;;;7.10;6.50;;;;;;;;;;5079065;28;25000;-45
2022/05/03 14:44:58;;;;;;;7.40;6.80;;;;;;;;;;5062413;28;24438;-47
2022/05/03 14:47:24;;;;;;;8.23;7.43;;;;;;;;;;5079570;28;24575;-45
2022/05/03 14:49:50;;;;;;;8.10;7.40;;;;;;;;;;5083443;28;24889;-45
2022/05/03 14:52:16;;;;;;;7.60;6.90;;;;;;;;;;5085484;28;24947;-45
2022/05/03 14:54:42;;;;;;;8.10;7.05;;;;;;;;;;5085355;28;24418;-46
2022/05/03 15:05:32;;;;;;;8.40;7.70;;;;;;;;;;5081933;28;26029;-45
2022/05/03 15:07:58;;;;;;;8.00;7.40;;;;;;;;;;5085073;28;24537;-45
2022/05/03 15:10:23;;;;;;;8.33;7.53;;;;;;;;;;5084659;28;24899;-45
2022/05/03 15:12:49;;;;;;;8.17;7.37;;;;;;;;;;5074638;28;25016;-45
2022/05/03 15:15:16;;;;;;;7.60;6.90;;;;;;;;;;5089067;28;24993;-45
2022/05/03 15:17:50;;;;;;;7.40;6.80;;;;;;;;;;5088136;28;24501;-44
2022/05/03 15:20:17;;;;;;;8.68;7.97;;;;;;;;;;5089255;28;24421;-45